Time;durP1;ratioP1;P1;durP2;ratioP2;P2;SDS_P1;SDS_P2;PMS_P1;PMS_P2;Temp;Humidity;BMP_temperature;BMP_pressure;BME280_temperature;BME280_humidity;BME280_pressure;Samples;Min_cycle;Max_cycle;Signal;HPM_P1;HPM_P2
2022/12/28 00:01:36;;;;;;;3.67;0.82;;;10.80;82.40;;;;;;4949867;29;20060;-78
2022/12/28 00:04:05;;;;;;;2.80;1.17;;;10.80;82.30;;;;;;4940171;29;20542;-78
2022/12/28 00:06:33;;;;;;;3.85;1.15;;;10.80;82.30;;;;;;4951244;29;20043;-78
2022/12/28 00:08:59;;;;;;;4.10;1.60;;;10.80;82.30;;;;;;4951113;28;20027;-78
2022/12/28 00:11:26;;;;;;;7.40;1.50;;;10.80;82.30;;;;;;4958627;29;20059;-78
2022/12/28 00:13:52;;;;;;;4.80;1.25;;;10.80;82.40;;;;;;4955210;29;20086;-78
2022/12/28 00:16:28;;;;;;;3.42;1.40;;;10.80;82.40;;;;;;4960091;29;20027;-78
2022/12/28 00:18:55;;;;;;;6.65;1.50;;;10.80;82.40;;;;;;4959967;29;20062;-78
2022/12/28 00:21:22;;;;;;;5.25;1.45;;;10.80;82.50;;;;;;4957069;29;20027;-78
2022/12/28 00:23:49;;;;;;;2.88;1.35;;;10.80;82.40;;;;;;4959973;29;20028;-78
2022/12/28 00:26:15;;;;;;;4.28;1.02;;;10.80;82.20;;;;;;4949227;29;20038;-78
2022/12/28 00:28:41;;;;;;;7.57;1.35;;;10.90;82.30;;;;;;4959368;29;20498;-79
2022/12/28 00:31:07;;;;;;;7.35;1.30;;;10.80;82.30;;;;;;4950032;29;20051;-78
2022/12/28 00:33:32;;;;;;;1.92;1.30;;;10.90;82.30;;;;;;4959762;29;20023;-78
2022/12/28 00:36:03;;;;;;;2.95;1.00;;;10.80;82.10;;;;;;4954362;29;20364;-78
2022/12/28 00:38:32;;;;;;;6.18;1.85;;;10.80;82.10;;;;;;4957792;29;20027;-79
2022/12/28 00:40:58;;;;;;;6.75;1.40;;;10.90;82.10;;;;;;4959221;29;20590;-78
2022/12/28 00:43:25;;;;;;;4.75;0.90;;;10.80;82.10;;;;;;4959501;29;20167;-78
2022/12/28 00:45:50;;;;;;;4.18;1.13;;;10.90;82.20;;;;;;4950315;29;20035;-78
2022/12/28 00:48:16;;;;;;;5.65;1.02;;;10.90;82.20;;;;;;4955015;29;20035;-78
2022/12/28 00:50:43;;;;;;;4.50;1.50;;;10.80;82.00;;;;;;4959353;29;20020;-78
2022/12/28 00:53:12;;;;;;;4.82;1.38;;;10.80;82.20;;;;;;4956950;29;20039;-77
2022/12/28 00:55:38;;;;;;;1.77;1.00;;;10.80;82.30;;;;;;4958186;29;20030;-78
2022/12/28 00:58:05;;;;;;;3.72;1.40;;;10.90;82.20;;;;;;4953155;29;20118;-79
2022/12/28 01:00:31;;;;;;;4.10;1.63;;;10.90;82.30;;;;;;4957961;29;20028;-78
2022/12/28 01:02:57;;;;;;;4.20;1.23;;;10.90;82.30;;;;;;4958913;29;20486;-78
2022/12/28 01:05:23;;;;;;;1.48;1.08;;;10.90;82.20;;;;;;4957749;29;20027;-78
2022/12/28 01:07:49;;;;;;;2.40;0.93;;;10.90;82.20;;;;;;4955449;29;20058;-78
2022/12/28 01:10:16;;;;;;;2.42;0.80;;;10.90;82.30;;;;;;4957871;29;20035;-78
2022/12/28 01:12:41;;;;;;;4.25;1.08;;;10.90;82.30;;;;;;4959176;29;20110;-78
2022/12/28 01:15:09;;;;;;;1.98;1.00;;;10.90;82.20;;;;;;4958508;29;20059;-78
2022/12/28 01:17:35;;;;;;;5.22;1.20;;;10.90;82.30;;;;;;4958088;29;20079;-78
2022/12/28 01:20:01;;;;;;;6.47;1.48;;;11.00;82.40;;;;;;4958500;29;20027;-78
2022/12/28 01:22:27;;;;;;;2.47;1.00;;;11.00;82.40;;;;;;4957504;28;20042;-78
2022/12/28 01:24:53;;;;;;;7.50;1.88;;;11.00;82.30;;;;;;4955446;29;20063;-79
2022/12/28 01:27:29;;;;;;;;;;;;;;;;;;;;;
2022/12/28 01:29:55;;;;;;;5.72;1.00;;;11.00;82.40;;;;;;4959106;29;20110;-79
2022/12/28 01:32:20;;;;;;;5.65;1.10;;;11.00;82.40;;;;;;4956144;29;20134;-78
2022/12/28 01:34:46;;;;;;;7.25;1.38;;;11.10;82.30;;;;;;4949145;29;20036;-78
2022/12/28 01:37:12;;;;;;;4.20;1.33;;;11.00;82.50;;;;;;4956921;29;20038;-78
2022/12/28 01:39:37;;;;;;;8.95;1.98;;;11.00;82.50;;;;;;4958363;29;20070;-78
2022/12/28 01:42:03;;;;;;;4.93;1.60;;;11.00;82.60;;;;;;4949271;29;20628;-78
2022/12/28 01:44:41;;;;;;;7.60;1.40;;;11.00;82.60;;;;;;4958352;29;20038;-78
2022/12/28 01:47:12;;;;;;;2.25;1.10;;;11.10;82.60;;;;;;4958407;29;20035;-79
2022/12/28 01:49:41;;;;;;;8.63;1.55;;;11.10;82.50;;;;;;4958036;29;20027;-79
2022/12/28 01:52:37;;;;;;;7.00;1.83;;;11.00;82.50;;;;;;4956779;29;20098;-79
2022/12/28 01:55:13;;;;;;;7.57;1.70;;;11.00;82.50;;;;;;4948347;29;20035;-79
2022/12/28 01:57:57;;;;;;;5.30;1.02;;;11.00;82.60;;;;;;4954497;29;20086;-79
2022/12/28 02:00:23;;;;;;;2.88;0.93;;;11.10;82.60;;;;;;4956961;29;20031;-78
2022/12/28 02:02:58;;;;;;;5.20;1.83;;;11.10;82.50;;;;;;4958175;29;20235;-79
2022/12/28 02:05:30;;;;;;;5.38;1.55;;;11.10;82.50;;;;;;4958040;29;20027;-78
2022/12/28 02:08:09;;;;;;;3.53;0.80;;;11.10;82.40;;;;;;4955499;29;20122;-79
2022/12/28 02:10:36;;;;;;;2.00;1.60;;;11.10;82.50;;;;;;4956431;29;20027;-79
2022/12/28 02:13:03;;;;;;;3.53;1.30;;;11.10;82.40;;;;;;4957112;29;20094;-79
2022/12/28 02:15:29;;;;;;;4.32;1.27;;;11.10;82.30;;;;;;4956526;29;20031;-79
2022/12/28 02:17:55;;;;;;;2.05;1.00;;;11.10;82.40;;;;;;4954149;29;20406;-79
2022/12/28 02:20:27;;;;;;;4.60;1.27;;;11.10;82.40;;;;;;4955887;29;20518;-79
2022/12/28 02:23:09;;;;;;;9.07;1.55;;;11.10;82.50;;;;;;4955204;29;20049;-80
2022/12/28 02:25:49;;;;;;;10.82;1.52;;;11.20;82.50;;;;;;4953644;29;20055;-79
2022/12/28 02:28:44;;;;;;;1.85;1.08;;;11.20;82.40;;;;;;4957832;29;20086;-79
2022/12/28 02:31:33;;;;;;;5.40;1.80;;;11.20;82.40;;;;;;4944701;29;20063;-79
2022/12/28 02:34:11;;;;;;;3.78;1.50;;;11.10;82.60;;;;;;4949398;29;20505;-79
2022/12/28 02:36:45;;;;;;;10.88;2.65;;;11.10;82.60;;;;;;4956590;29;20059;-79
2022/12/28 02:39:21;;;;;;;2.15;1.30;;;11.10;82.60;;;;;;4957416;29;20032;-79
2022/12/28 02:41:49;;;;;;;6.68;1.20;;;11.10;82.70;;;;;;4947327;29;20027;-79
2022/12/28 02:50:04;;;;;;;5.22;1.10;;;11.10;82.80;;;;;;4944852;29;20039;-79
2022/12/28 02:50:05;;;;;;;6.70;1.30;;;11.10;82.80;;;;;;4956982;29;20042;-79
2022/12/28 02:52:46;;;;;;;8.35;2.47;;;11.10;82.80;;;;;;4953156;29;20093;-79
2022/12/28 02:58:19;;;;;;;1.70;1.25;;;11.10;82.90;;;;;;4957417;29;20129;-79
2022/12/28 03:00:44;;;;;;;6.72;1.30;;;11.10;82.90;;;;;;4954585;28;20035;-79
2022/12/28 03:03:16;;;;;;;5.97;1.20;;;11.10;82.90;;;;;;4957296;29;20034;-79
2022/12/28 03:09:01;;;;;;;6.22;1.38;;;11.10;83.10;;;;;;4956929;29;20050;-79
2022/12/28 03:11:38;;;;;;;2.92;1.75;;;11.10;83.00;;;;;;4945858;29;20099;-79
2022/12/28 03:14:17;;;;;;;1.23;0.80;;;11.10;83.00;;;;;;4956887;29;20424;-79
2022/12/28 03:33:33;;;;;;;4.78;1.13;;;11.20;83.40;;;;;;4957426;29;20562;-79
2022/12/28 03:36:07;;;;;;;6.00;1.23;;;11.10;83.40;;;;;;4952820;29;20024;-79
2022/12/28 03:39:03;;;;;;;4.40;1.30;;;11.10;83.50;;;;;;4956294;29;20055;-78
2022/12/28 03:41:35;;;;;;;4.80;1.17;;;11.10;83.40;;;;;;4952810;29;20028;-79
2022/12/28 03:44:12;;;;;;;3.45;1.23;;;11.10;83.50;;;;;;4957755;28;20051;-79
2022/12/28 03:46:59;;;;;;;15.70;1.90;;;11.20;83.50;;;;;;4958240;29;20016;-79
2022/12/28 03:49:26;;;;;;;9.02;2.65;;;11.20;83.40;;;;;;4949630;29;20036;-79
2022/12/28 03:51:53;;;;;;;6.18;1.30;;;11.10;83.40;;;;;;4961147;29;20135;-79
2022/12/28 03:54:19;;;;;;;4.13;1.30;;;11.20;83.30;;;;;;4953180;29;20484;-79
2022/12/28 03:56:47;;;;;;;4.72;1.52;;;11.20;83.30;;;;;;4954006;29;20450;-79
2022/12/28 03:59:13;;;;;;;6.13;1.17;;;11.20;83.30;;;;;;4959867;28;20132;-79
2022/12/28 04:01:39;;;;;;;5.38;1.27;;;11.20;83.10;;;;;;4952147;29;20035;-79
2022/12/28 04:04:04;;;;;;;1.52;1.02;;;11.20;83.20;;;;;;4959983;29;20027;-79
2022/12/28 04:06:30;;;;;;;7.38;1.63;;;11.20;83.10;;;;;;4954259;29;20036;-79
2022/12/28 04:08:56;;;;;;;1.75;0.90;;;11.20;83.20;;;;;;4942633;29;20031;-79
2022/12/28 04:11:21;;;;;;;5.32;1.30;;;11.20;83.20;;;;;;4954279;29;20071;-79
2022/12/28 04:13:47;;;;;;;6.55;1.27;;;11.20;83.00;;;;;;4954470;29;20086;-79
2022/12/28 04:16:14;;;;;;;13.85;2.05;;;11.20;83.10;;;;;;4959140;29;20082;-79
2022/12/28 04:18:40;;;;;;;4.20;1.17;;;11.20;83.00;;;;;;4960199;29;20023;-79
2022/12/28 04:21:07;;;;;;;5.72;1.83;;;11.20;83.00;;;;;;4946185;29;20032;-79
2022/12/28 04:23:33;;;;;;;5.88;1.60;;;11.20;82.90;;;;;;4959102;29;20027;-79
2022/12/28 04:26:08;;;;;;;3.20;0.88;;;11.20;83.00;;;;;;4960541;29;20034;-79
2022/12/28 04:28:34;;;;;;;6.70;2.05;;;11.10;83.20;;;;;;4954469;29;20039;-79
2022/12/28 04:31:01;;;;;;;4.20;1.63;;;11.10;83.10;;;;;;4958740;29;20062;-79
2022/12/28 04:33:27;;;;;;;7.47;1.38;;;11.20;83.10;;;;;;4957672;29;20034;-79
2022/12/28 04:35:53;;;;;;;4.93;1.15;;;11.20;83.00;;;;;;4955518;29;20042;-78
2022/12/28 04:38:20;;;;;;;3.25;1.05;;;11.10;83.10;;;;;;4953320;29;20035;-79
2022/12/28 04:40:46;;;;;;;7.18;1.70;;;11.10;83.00;;;;;;4956249;29;20025;-79
2022/12/28 04:43:11;;;;;;;6.70;1.33;;;11.20;83.10;;;;;;4959808;29;20059;-79
2022/12/28 04:45:37;;;;;;;3.70;1.50;;;11.20;83.00;;;;;;4948352;29;20042;-79
2022/12/28 04:48:03;;;;;;;13.32;1.90;;;11.20;83.00;;;;;;4958532;29;20039;-78
2022/12/28 04:50:29;;;;;;;2.75;0.93;;;11.20;83.00;;;;;;4953041;29;20034;-79
2022/12/28 04:52:55;;;;;;;3.88;2.28;;;11.20;83.10;;;;;;4958280;29;20027;-79
2022/12/28 04:55:20;;;;;;;9.32;1.48;;;11.20;83.10;;;;;;4958241;28;20024;-79
2022/12/28 04:57:46;;;;;;;4.47;1.27;;;11.20;83.00;;;;;;4958585;29;20027;-79
2022/12/28 05:00:13;;;;;;;1.95;0.93;;;11.20;83.10;;;;;;4958463;29;20390;-79
2022/12/28 05:02:39;;;;;;;4.97;1.38;;;11.20;83.00;;;;;;4955922;29;20035;-78
2022/12/28 05:05:05;;;;;;;5.65;1.60;;;11.20;83.20;;;;;;4958402;29;20340;-79
2022/12/28 05:07:31;;;;;;;2.38;1.42;;;11.20;83.10;;;;;;4956641;29;20062;-79
2022/12/28 05:10:01;;;;;;;4.60;1.85;;;11.20;83.10;;;;;;4949435;29;20027;-78
2022/12/28 05:12:27;;;;;;;5.88;1.50;;;11.20;83.10;;;;;;4958593;29;20035;-79
2022/12/28 05:14:53;;;;;;;3.88;1.15;;;11.20;83.30;;;;;;4955107;29;20054;-79
2022/12/28 05:17:18;;;;;;;3.28;1.40;;;11.20;83.20;;;;;;4959838;29;20035;-79
2022/12/28 05:19:44;;;;;;;6.05;1.50;;;11.20;83.10;;;;;;4954882;29;20023;-79
2022/12/28 05:22:11;;;;;;;8.75;1.50;;;11.20;83.60;;;;;;4958182;29;20035;-79
2022/12/28 05:24:37;;;;;;;3.50;1.02;;;11.20;83.80;;;;;;4956682;29;20032;-79
2022/12/28 05:27:06;;;;;;;6.63;1.42;;;11.20;84.20;;;;;;4951913;29;20558;-79
2022/12/28 05:29:31;;;;;;;4.13;1.55;;;11.20;84.20;;;;;;4957284;29;20039;-79
2022/12/28 05:31:57;;;;;;;11.05;1.38;;;11.20;84.10;;;;;;4955235;29;20057;-79
2022/12/28 05:34:23;;;;;;;5.10;1.35;;;11.20;84.10;;;;;;4956193;29;20024;-79
2022/12/28 05:36:48;;;;;;;11.27;1.75;;;11.20;84.10;;;;;;4956675;29;20023;-79
2022/12/28 05:39:14;;;;;;;2.00;0.73;;;11.20;84.10;;;;;;4957970;29;20403;-79
2022/12/28 05:41:40;;;;;;;3.13;1.25;;;11.20;84.20;;;;;;4957941;29;20399;-79
2022/12/28 05:44:06;;;;;;;1.25;0.80;;;11.20;84.20;;;;;;4959016;29;20710;-79
2022/12/28 05:46:33;;;;;;;4.15;1.08;;;11.20;84.10;;;;;;4957320;29;20066;-79
2022/12/28 05:49:00;;;;;;;5.45;1.58;;;11.20;83.90;;;;;;4942862;29;20031;-78
2022/12/28 05:51:28;;;;;;;9.32;1.45;;;11.20;83.80;;;;;;4958696;29;20037;-79
2022/12/28 05:53:55;;;;;;;4.53;1.13;;;11.20;83.70;;;;;;4956766;29;20530;-79
2022/12/28 05:56:27;;;;;;;2.15;1.20;;;11.20;83.80;;;;;;4956958;29;20110;-79
2022/12/28 05:58:55;;;;;;;2.92;0.85;;;11.30;83.60;;;;;;4940603;29;20035;-79
2022/12/28 06:01:23;;;;;;;6.97;1.10;;;11.20;83.50;;;;;;4956657;29;20032;-79
2022/12/28 06:03:55;;;;;;;6.22;1.30;;;11.30;83.40;;;;;;4952233;29;20538;-79
2022/12/28 06:06:24;;;;;;;7.45;1.63;;;11.30;83.40;;;;;;4946771;29;20027;-78
2022/12/28 06:08:49;;;;;;;5.50;1.20;;;11.20;83.70;;;;;;4955639;28;20035;-80
2022/12/28 06:11:18;;;;;;;5.78;1.15;;;11.20;83.70;;;;;;4945017;29;20037;-79
2022/12/28 06:13:44;;;;;;;5.43;2.22;;;11.20;83.80;;;;;;4956488;29;20414;-79
2022/12/28 06:16:18;;;;;;;6.82;1.60;;;11.20;83.70;;;;;;4956627;29;20482;-79
2022/12/28 06:18:44;;;;;;;3.80;1.38;;;11.20;84.00;;;;;;4951876;29;20034;-79
2022/12/28 06:21:17;;;;;;;7.25;1.40;;;11.20;83.90;;;;;;4952577;29;20091;-79
2022/12/28 06:23:46;;;;;;;4.90;1.23;;;11.20;84.00;;;;;;4957923;28;20448;-79
2022/12/28 06:26:14;;;;;;;6.45;1.55;;;11.20;84.00;;;;;;4956948;29;20019;-79
2022/12/28 06:28:40;;;;;;;5.18;0.98;;;11.20;84.10;;;;;;4951492;29;20031;-79
2022/12/28 06:31:14;;;;;;;3.65;1.45;;;11.20;84.10;;;;;;4957441;29;20129;-79
2022/12/28 06:33:41;;;;;;;7.35;1.38;;;11.20;84.10;;;;;;4955929;29;20028;-78
2022/12/28 06:36:15;;;;;;;13.32;1.80;;;11.20;84.00;;;;;;4949259;29;20154;-78
2022/12/28 06:38:41;;;;;;;2.88;1.02;;;11.20;84.40;;;;;;4953594;29;20027;-78
2022/12/28 06:41:08;;;;;;;5.63;1.55;;;11.20;84.40;;;;;;4952390;29;20033;-78
2022/12/28 06:43:36;;;;;;;6.13;1.80;;;11.20;84.20;;;;;;4956123;29;20027;-78
2022/12/28 06:46:02;;;;;;;6.10;1.30;;;11.20;84.30;;;;;;4945507;29;20411;-78
2022/12/28 06:48:29;;;;;;;3.05;1.10;;;11.20;84.30;;;;;;4958097;29;20031;-78
2022/12/28 06:51:03;;;;;;;3.90;1.20;;;11.20;84.50;;;;;;4952249;29;20233;-78
2022/12/28 06:53:32;;;;;;;7.50;1.55;;;11.20;84.40;;;;;;4956283;29;20035;-78
2022/12/28 06:56:04;;;;;;;4.38;1.02;;;11.20;84.50;;;;;;4953276;29;20050;-78
2022/12/28 06:58:30;;;;;;;4.28;1.15;;;11.20;84.60;;;;;;4954803;29;20059;-78
2022/12/28 07:01:04;;;;;;;2.95;0.82;;;11.20;84.70;;;;;;4957408;28;20074;-78
2022/12/28 07:03:29;;;;;;;4.93;1.17;;;11.20;84.80;;;;;;4951970;29;20107;-78
2022/12/28 07:05:59;;;;;;;5.00;1.17;;;11.20;84.70;;;;;;4956190;29;20582;-78
2022/12/28 07:08:25;;;;;;;7.13;1.23;;;11.20;84.80;;;;;;4955953;29;20031;-78
2022/12/28 07:10:51;;;;;;;4.70;1.25;;;11.20;84.70;;;;;;4944231;29;20396;-78
2022/12/28 07:13:16;;;;;;;2.22;1.20;;;11.20;84.60;;;;;;4956958;29;20028;-78
2022/12/28 07:15:42;;;;;;;9.50;1.48;;;11.30;84.50;;;;;;4957851;29;20032;-78
2022/12/28 07:18:07;;;;;;;4.72;1.10;;;11.30;84.30;;;;;;4954088;28;20406;-78
2022/12/28 07:20:33;;;;;;;1.23;0.93;;;11.30;84.50;;;;;;4962393;29;20494;-79
2022/12/28 07:22:59;;;;;;;9.30;1.70;;;11.30;84.70;;;;;;4962391;29;20031;-79
2022/12/28 07:25:25;;;;;;;10.75;1.98;;;11.20;85.20;;;;;;4959438;29;20027;-79
2022/12/28 07:27:50;;;;;;;8.48;1.13;;;11.20;85.60;;;;;;4952896;29;20031;-78
2022/12/28 07:30:16;;;;;;;1.15;0.90;;;11.20;85.60;;;;;;4962385;29;20027;-79
2022/12/28 07:32:42;;;;;;;8.23;1.58;;;11.10;85.70;;;;;;4962854;29;20046;-78
2022/12/28 07:35:09;;;;;;;1.88;1.08;;;11.10;85.90;;;;;;4951633;29;20435;-78
2022/12/28 07:37:36;;;;;;;6.43;1.63;;;11.10;86.10;;;;;;4963587;29;20082;-78
2022/12/28 07:40:02;;;;;;;7.20;1.85;;;11.10;86.20;;;;;;4962481;29;20026;-78
2022/12/28 07:42:28;;;;;;;3.53;1.25;;;11.10;86.20;;;;;;4949140;29;20906;-78
2022/12/28 07:44:54;;;;;;;7.40;1.35;;;11.10;86.10;;;;;;4956384;28;20034;-78
2022/12/28 07:47:19;;;;;;;3.85;1.35;;;11.10;86.00;;;;;;4959952;28;20027;-78
2022/12/28 07:49:45;;;;;;;2.92;1.20;;;10.90;86.00;;;;;;4962459;29;20107;-78
2022/12/28 07:52:11;;;;;;;4.15;1.42;;;10.90;86.30;;;;;;4961754;29;20652;-78
2022/12/28 07:54:39;;;;;;;5.05;1.10;;;10.90;86.40;;;;;;4962941;28;20035;-78
2022/12/28 07:57:05;;;;;;;9.80;2.15;;;10.80;86.50;;;;;;4960653;29;20031;-78
2022/12/28 07:59:30;;;;;;;4.03;1.50;;;10.80;86.40;;;;;;4959354;29;20079;-78
2022/12/28 08:01:56;;;;;;;4.78;1.50;;;10.80;86.60;;;;;;4956477;29;20028;-78
2022/12/28 08:04:21;;;;;;;2.40;1.27;;;10.80;86.60;;;;;;4962081;29;20081;-78
2022/12/28 08:06:47;;;;;;;6.45;1.73;;;10.80;86.80;;;;;;4961237;29;20035;-78
2022/12/28 08:09:14;;;;;;;3.72;1.50;;;10.80;87.10;;;;;;4961600;29;20028;-79
2022/12/28 08:11:45;;;;;;;6.20;2.13;;;10.70;87.30;;;;;;4952440;29;20507;-78
2022/12/28 08:14:11;;;;;;;3.88;3.05;;;10.80;87.50;;;;;;4960543;28;20118;-79
2022/12/28 08:16:40;;;;;;;6.82;1.55;;;10.80;87.50;;;;;;4952173;28;20030;-78
2022/12/28 08:19:07;;;;;;;4.85;1.15;;;10.90;87.30;;;;;;4963189;28;20015;-79
2022/12/28 08:21:39;;;;;;;5.93;1.63;;;10.90;87.10;;;;;;4959979;28;20039;-78
2022/12/28 08:24:06;;;;;;;4.68;1.85;;;11.00;86.80;;;;;;4957354;29;20051;-79
2022/12/28 08:26:35;;;;;;;11.63;1.40;;;11.10;86.50;;;;;;4959285;29;20027;-79
2022/12/28 08:29:03;;;;;;;1.48;1.35;;;11.10;86.10;;;;;;4962999;28;20049;-79
2022/12/28 08:31:35;;;;;;;3.25;1.10;;;11.10;85.80;;;;;;4957493;28;20082;-79
2022/12/28 08:34:02;;;;;;;1.63;0.98;;;11.10;85.80;;;;;;4959379;29;20483;-78
2022/12/28 08:36:28;;;;;;;2.95;1.13;;;11.10;85.90;;;;;;4958488;29;20042;-78
2022/12/28 08:38:56;;;;;;;5.18;1.20;;;11.20;85.70;;;;;;4956500;29;20043;-78
2022/12/28 08:41:23;;;;;;;1.40;1.02;;;11.20;85.90;;;;;;4955898;29;20027;-78
2022/12/28 08:43:51;;;;;;;3.83;1.38;;;11.20;86.00;;;;;;4958372;29;20164;-79
2022/12/28 08:46:19;;;;;;;3.58;1.33;;;11.20;86.10;;;;;;4959817;29;20034;-79
2022/12/28 08:48:46;;;;;;;3.55;1.20;;;11.20;86.10;;;;;;4958539;29;20034;-79
2022/12/28 08:51:16;;;;;;;4.65;1.27;;;11.20;86.20;;;;;;4959706;29;20114;-78
2022/12/28 08:53:42;;;;;;;2.78;1.17;;;11.30;86.10;;;;;;4953898;29;20020;-79
2022/12/28 08:56:20;;;;;;;6.45;1.40;;;11.30;86.00;;;;;;4958454;29;20364;-79
2022/12/28 08:58:47;;;;;;;6.85;3.03;;;11.30;85.90;;;;;;4956270;28;20028;-79
2022/12/28 09:01:13;;;;;;;1.77;1.52;;;11.30;85.90;;;;;;4959387;29;20064;-78
2022/12/28 09:03:41;;;;;;;3.58;1.35;;;11.40;85.70;;;;;;4958386;29;20054;-79
2022/12/28 09:06:13;;;;;;;6.05;1.50;;;11.50;85.80;;;;;;4956598;29;20094;-79
2022/12/28 09:08:39;;;;;;;10.02;1.65;;;11.50;85.50;;;;;;4952380;29;20031;-79
2022/12/28 09:11:09;;;;;;;3.15;1.20;;;11.50;85.50;;;;;;4957574;29;20067;-79
2022/12/28 09:13:35;;;;;;;1.85;0.93;;;11.60;85.50;;;;;;4957917;29;20050;-79
2022/12/28 09:16:08;;;;;;;9.93;1.98;;;11.60;85.20;;;;;;4953562;29;20024;-79
2022/12/28 09:18:35;;;;;;;3.78;1.65;;;11.60;85.30;;;;;;4946366;29;20027;-79
2022/12/28 09:21:09;;;;;;;6.32;2.08;;;11.60;85.10;;;;;;4958983;29;20483;-79
2022/12/28 09:23:36;;;;;;;10.95;1.55;;;11.70;85.00;;;;;;4956684;29;20028;-79
2022/12/28 09:26:14;;;;;;;5.50;1.52;;;11.70;84.90;;;;;;4957662;29;20066;-79
2022/12/28 09:28:51;;;;;;;6.18;1.50;;;11.80;84.70;;;;;;4957664;29;20163;-79
2022/12/28 09:31:18;;;;;;;3.83;1.45;;;11.80;84.70;;;;;;4954644;29;20110;-79
2022/12/28 09:33:59;;;;;;;9.45;1.77;;;11.80;84.50;;;;;;4958605;29;20423;-79
2022/12/28 09:36:39;;;;;;;8.18;1.40;;;11.90;84.30;;;;;;4953265;29;20016;-78
2022/12/28 09:39:11;;;;;;;10.75;1.63;;;11.90;84.20;;;;;;4947137;29;20030;-79
2022/12/28 09:41:55;;;;;;;4.15;1.40;;;11.90;84.10;;;;;;4955624;28;20046;-79
2022/12/28 09:44:23;;;;;;;3.03;1.23;;;11.90;83.90;;;;;;4957476;29;20030;-79
2022/12/28 09:46:53;;;;;;;3.42;1.08;;;12.00;84.00;;;;;;4956948;29;20111;-79
2022/12/28 09:49:23;;;;;;;3.30;1.20;;;12.00;83.90;;;;;;4948433;29;20086;-79
2022/12/28 09:52:00;;;;;;;6.13;1.70;;;12.00;83.80;;;;;;4950114;29;20039;-79
2022/12/28 09:54:26;;;;;;;4.55;1.40;;;12.10;83.90;;;;;;4958194;29;20495;-79
2022/12/28 09:56:52;;;;;;;5.53;1.65;;;12.10;83.50;;;;;;4958517;29;20078;-79
2022/12/28 09:59:24;;;;;;;2.58;1.48;;;12.10;83.50;;;;;;4957276;29;20087;-79
2022/12/28 10:01:59;;;;;;;15.35;2.20;;;12.10;83.70;;;;;;4949028;29;20045;-79
2022/12/28 10:04:25;;;;;;;7.57;1.42;;;12.00;83.80;;;;;;4955546;29;20029;-79
2022/12/28 10:06:52;;;;;;;5.03;1.80;;;12.10;84.00;;;;;;4950822;29;20090;-79
2022/12/28 10:09:29;;;;;;;3.97;1.60;;;12.20;83.90;;;;;;4958275;29;20102;-79
2022/12/28 10:11:54;;;;;;;5.93;1.42;;;12.20;83.90;;;;;;4952087;29;20091;-79
2022/12/28 10:14:26;;;;;;;9.18;1.17;;;12.20;83.80;;;;;;4955991;29;20510;-79
2022/12/28 10:16:52;;;;;;;4.47;1.50;;;12.20;83.80;;;;;;4956886;29;20054;-79
2022/12/28 10:19:22;;;;;;;7.38;1.77;;;12.20;84.00;;;;;;4956967;29;20470;-79
2022/12/28 10:21:57;;;;;;;4.45;1.42;;;12.20;84.20;;;;;;4955915;29;20020;-79
2022/12/28 10:24:23;;;;;;;5.20;2.08;;;12.20;83.90;;;;;;4957754;29;20403;-79
2022/12/28 10:26:48;;;;;;;5.78;1.27;;;12.20;84.20;;;;;;4955956;29;20046;-79
2022/12/28 10:29:18;;;;;;;8.20;1.70;;;12.20;84.50;;;;;;4948983;29;20061;-79
2022/12/28 10:32:00;;;;;;;6.30;1.48;;;12.20;84.60;;;;;;4956127;29;20232;-79
2022/12/28 10:34:28;;;;;;;8.82;1.73;;;12.20;84.70;;;;;;4956387;29;20031;-79
2022/12/28 10:36:54;;;;;;;4.63;1.52;;;12.20;84.90;;;;;;4955324;29;20028;-79
2022/12/28 10:39:31;;;;;;;4.57;1.55;;;12.20;85.40;;;;;;4957695;29;20035;-79
2022/12/28 10:41:59;;;;;;;4.10;1.67;;;12.10;85.70;;;;;;4944846;29;20027;-79
2022/12/28 10:44:34;;;;;;;5.53;1.60;;;12.20;85.80;;;;;;4947650;29;20129;-79
2022/12/28 10:47:14;;;;;;;8.35;1.92;;;12.10;85.70;;;;;;4949618;29;20093;-79
2022/12/28 10:49:48;;;;;;;7.63;1.45;;;12.10;85.80;;;;;;4953760;29;20035;-79
2022/12/28 10:52:14;;;;;;;11.25;2.60;;;12.20;85.90;;;;;;4945444;29;20106;-79
2022/12/28 10:54:40;;;;;;;2.78;1.20;;;12.10;86.10;;;;;;4955590;29;20050;-79
2022/12/28 10:57:25;;;;;;;6.82;1.30;;;12.10;86.10;;;;;;4947716;29;20019;-78
2022/12/28 10:59:50;;;;;;;5.40;1.02;;;12.00;86.20;;;;;;4949561;29;20051;-78
2022/12/28 11:02:26;;;;;;;2.63;1.38;;;12.10;85.90;;;;;;4953773;29;20503;-78
2022/12/28 11:04:55;;;;;;;13.57;2.30;;;12.10;85.70;;;;;;4957401;29;20533;-78
2022/12/28 11:07:34;;;;;;;8.60;2.20;;;12.20;85.80;;;;;;4956358;29;20546;-79
2022/12/28 11:10:25;;;;;;;3.88;1.45;;;12.20;85.70;;;;;;4957309;29;20027;-78
2022/12/28 11:12:53;;;;;;;6.43;1.42;;;12.20;85.30;;;;;;4955655;29;20066;-78
2022/12/28 11:15:23;;;;;;;3.85;1.35;;;12.20;85.00;;;;;;4951926;29;20032;-78
2022/12/28 11:17:58;;;;;;;4.38;1.75;;;12.20;84.90;;;;;;4954573;29;20024;-78
2022/12/28 11:20:32;;;;;;;9.88;1.23;;;12.30;85.00;;;;;;4951064;29;20038;-79
2022/12/28 11:22:58;;;;;;;3.95;1.50;;;12.30;84.90;;;;;;4952166;29;20100;-79
2022/12/28 11:25:35;;;;;;;3.63;1.25;;;12.30;85.00;;;;;;4957266;29;20033;-79
2022/12/28 11:28:05;;;;;;;4.03;1.17;;;12.20;84.90;;;;;;4948762;29;20032;-79
2022/12/28 11:30:31;;;;;;;5.70;1.58;;;12.30;85.20;;;;;;4949783;29;20043;-78
2022/12/28 11:32:59;;;;;;;4.78;1.50;;;12.20;85.50;;;;;;4956832;29;20499;-78
2022/12/28 11:35:32;;;;;;;3.05;1.35;;;12.20;85.90;;;;;;4957025;29;20379;-78
2022/12/28 11:38:00;;;;;;;4.35;1.20;;;12.30;86.10;;;;;;4946236;29;20027;-78
2022/12/28 11:40:45;;;;;;;5.28;1.00;;;12.30;86.10;;;;;;4955343;29;20494;-78
2022/12/28 11:43:38;;;;;;;3.97;1.40;;;12.40;85.90;;;;;;4957015;29;20042;-79
2022/12/28 11:46:27;;;;;;;4.00;1.33;;;12.30;86.10;;;;;;4945486;29;20042;-79
2022/12/28 11:49:20;;;;;;;2.75;1.08;;;12.30;86.10;;;;;;4956586;28;20114;-79
2022/12/28 11:51:46;;;;;;;3.83;1.25;;;12.30;86.10;;;;;;4954336;29;20035;-78
2022/12/28 11:54:36;;;;;;;4.85;1.90;;;12.30;86.30;;;;;;4955587;29;20039;-79
2022/12/28 11:57:02;;;;;;;4.33;1.37;;;12.30;86.50;;;;;;4956073;29;20026;-79
2022/12/28 11:59:29;;;;;;;6.35;1.60;;;12.30;86.40;;;;;;4945470;29;20275;-78
2022/12/28 12:02:01;;;;;;;5.35;1.70;;;12.30;86.40;;;;;;4953691;29;20392;-79
2022/12/28 12:04:34;;;;;;;4.90;1.27;;;12.30;86.50;;;;;;4943938;28;20015;-79
2022/12/28 12:07:03;;;;;;;4.45;1.73;;;12.40;86.30;;;;;;4960334;29;20028;-79
2022/12/28 12:09:32;;;;;;;2.42;1.50;;;12.40;86.40;;;;;;4960097;29;20027;-78
2022/12/28 12:12:00;;;;;;;2.78;1.20;;;12.40;86.30;;;;;;4953599;29;20047;-79
2022/12/28 12:14:34;;;;;;;3.35;2.22;;;12.40;86.20;;;;;;4959094;29;20019;-79
2022/12/28 12:17:21;;;;;;;2.88;1.48;;;12.50;86.40;;;;;;4960161;29;20027;-79
2022/12/28 12:19:50;;;;;;;1.35;1.02;;;12.50;86.10;;;;;;4959625;29;20713;-79
2022/12/28 12:22:27;;;;;;;4.55;1.38;;;12.40;86.30;;;;;;4955060;29;20032;-79
2022/12/28 12:25:00;;;;;;;6.63;1.88;;;12.50;86.20;;;;;;4959813;29;20046;-79
2022/12/28 12:27:40;;;;;;;6.55;1.92;;;12.50;86.30;;;;;;4957167;29;20046;-79
2022/12/28 12:30:14;;;;;;;5.20;1.83;;;12.50;86.20;;;;;;4957761;29;20406;-79
2022/12/28 12:32:48;;;;;;;6.32;1.92;;;12.60;86.10;;;;;;4959848;29;20435;-79
2022/12/28 12:35:20;;;;;;;2.65;1.20;;;12.50;86.00;;;;;;4944859;29;20023;-79
2022/12/28 12:38:06;;;;;;;5.85;1.65;;;12.60;86.10;;;;;;4956342;29;20034;-79
2022/12/28 12:41:09;;;;;;;8.95;1.83;;;12.50;86.20;;;;;;4957956;29;20027;-79
2022/12/28 12:43:35;;;;;;;5.80;2.08;;;12.60;86.30;;;;;;4959796;29;20496;-79
2022/12/28 12:46:22;;;;;;;5.22;1.40;;;12.50;86.60;;;;;;4954318;29;20066;-79
2022/12/28 12:49:20;;;;;;;5.85;1.52;;;12.50;86.70;;;;;;4956963;29;20034;-78
2022/12/28 12:51:53;;;;;;;5.32;2.25;;;12.50;87.00;;;;;;4959561;29;20380;-79
2022/12/28 12:54:31;;;;;;;4.00;1.52;;;12.50;87.10;;;;;;4954990;29;20024;-79
2022/12/28 12:57:10;;;;;;;2.97;1.17;;;12.50;87.30;;;;;;4954214;29;20094;-79
2022/12/28 13:00:06;;;;;;;2.03;1.20;;;12.50;87.50;;;;;;4956343;29;20127;-79
2022/12/28 13:02:56;;;;;;;9.60;1.58;;;12.40;87.60;;;;;;4957288;29;20027;-78
2022/12/28 13:05:24;;;;;;;;;;;12.40;87.70;;;;;;4950835;29;20571;-79
2022/12/28 13:07:51;;;;;;;5.05;1.90;;;12.40;87.80;;;;;;4960666;28;19953;-78
2022/12/28 13:10:35;;;;;;;3.67;1.10;;;12.50;87.90;;;;;;4959060;29;20050;-79
2022/12/28 13:13:04;;;;;;;5.47;1.50;;;12.40;88.10;;;;;;4942334;29;20575;-79
2022/12/28 13:15:30;;;;;;;2.55;1.20;;;12.40;88.50;;;;;;4952708;29;20019;-78
2022/12/28 13:18:04;;;;;;;3.55;1.63;;;12.40;88.50;;;;;;4954352;28;20502;-79
2022/12/28 13:20:30;;;;;;;2.47;1.67;;;12.30;88.90;;;;;;4959215;29;20034;-79
2022/12/28 13:22:56;;;;;;;3.22;1.45;;;12.30;89.10;;;;;;4957600;29;20027;-79
2022/12/28 13:25:29;;;;;;;3.38;1.40;;;12.30;89.10;;;;;;4955795;29;20015;-79
2022/12/28 13:27:56;;;;;;;4.20;1.48;;;12.30;89.00;;;;;;4953776;29;20126;-79
2022/12/28 13:30:24;;;;;;;5.25;1.88;;;12.30;89.10;;;;;;4958736;29;20585;-79